Latest Weather Observations for Julia Creek

IDQ60801

Issued at 8:35 pm EST Sunday 20 April 2014 (issued every 30 minutes, with the page automatically refreshed every 10 minutes)

About weather observations | Map of weather stations | Latest weather observations for QLD | Other Formats
Station Details ID: 029058 Name: JULIA CREEK AIRPORT Lat: -20.67 Lon: 141.72 Height: 122.5 m
Data from the previous 72 hours. | See also: Recent months at Julia Creek
Date/Time
EST
Temp
°C
App
Temp
°C
Dew
Point
Rel
Hum
%
Delta-T
°C
Wind Press
QNH
hPa
Press
MSL
hPa
Rain
since 9 am
mm
Dir
 
Spd
km/h
Gust
km/h
Spd
kts
Gust
kts
20/08:30pm 27.5 24.4 5.7 25 11.4 S 11 11 6 6 1013.2 - 0.0
20/08:00pm 27.7 25.1 5.9 25 11.4 SSE 9 11 5 6 1012.9 1012.3 0.0
20/07:30pm 28.2 25.1 5.7 24 11.8 S 11 13 6 7 1012.4 - 0.0
20/07:00pm 29.3 26.8 6.7 24 12.1 S 9 11 5 6 1012.1 1011.5 0.0
20/06:30pm 31.4 28.9 6.5 21 13.5 SSE 9 11 5 6 1011.9 - 0.0
20/06:00pm 33.3 30.6 7.3 20 14.4 SSE 11 17 6 9 1011.8 1011.2 0.0
20/05:30pm 33.7 31.3 6.9 19 14.8 SE 9 17 5 9 1011.5 - 0.0
20/05:00pm 34.2 30.7 7.3 19 14.9 SSE 15 20 8 11 1011.5 1010.9 0.0
20/04:30pm 34.9 30.6 7.9 19 15.2 SE 20 26 11 14 1011.2 - 0.0
20/04:00pm 34.7 31.3 7.7 19 15.1 E 15 28 8 15 1011.2 1010.6 0.0
20/03:30pm 35.4 32.5 8.3 19 15.4 E 13 24 7 13 1011.1 - 0.0
20/03:00pm 34.8 32.6 7.8 19 15.2 ENE 9 17 5 9 1011.3 1010.7 0.0
20/02:30pm 34.1 31.0 8.7 21 14.4 SE 15 22 8 12 1011.7 - 0.0
20/02:00pm 33.6 30.9 9.0 22 14.0 SSE 13 20 7 11 1012.2 1011.6 0.0
20/01:30pm 34.3 32.5 10.8 24 13.8 E 11 17 6 9 1012.7 - 0.0
20/01:00pm 32.9 32.1 10.9 26 12.8 ENE 6 11 3 6 1013.1 1012.5 0.0
20/12:30pm 32.3 31.6 12.0 29 12.0 E 7 15 4 8 1013.7 - 0.0
20/12:00pm 32.3 31.2 12.0 29 12.0 ENE 9 15 5 8 1014.4 1013.7 0.0
20/11:30am 31.4 30.5 11.2 29 11.8 NE 7 17 4 9 1014.9 - 0.0
20/11:00am 29.7 27.2 9.8 29 11.2 NE 13 20 7 11 1015.3 1014.6 0.0
20/10:30am 30.0 27.1 9.5 28 11.6 ENE 15 26 8 14 1015.5 - 0.0
20/10:00am 29.0 24.4 5.8 23 12.2 E 19 26 10 14 1015.8 1015.1 0.0
20/09:30am 27.3 21.0 3.7 22 11.9 ESE 26 32 14 17 1015.7 - 0.0
20/09:00am 25.2 18.2 2.0 22 11.1 ESE 28 35 15 19 1015.5 1014.8 0.0
20/08:30am 23.1 16.4 1.5 24 10.1 ESE 26 33 14 18 1015.2 - 0.0
20/08:00am 21.7 16.7 1.4 26 9.4 SE 17 22 9 12 1015.0 1014.3 0.0
20/07:30am 20.3 15.6 0.7 27 8.9 SE 15 19 8 10 1014.6 - 0.0
20/07:00am 19.9 14.8 0.9 28 8.6 SE 17 22 9 12 1014.1 1013.4 0.0
20/06:30am 20.9 14.8 0.7 26 9.2 SSE 22 28 12 15 1013.6 - 0.0
20/06:00am 21.7 15.3 0.8 25 9.6 SE 24 32 13 17 1013.4 1012.8 0.0
20/05:30am 21.7 15.3 0.8 25 9.6 SSE 24 32 13 17 1012.9 - 0.0
20/05:00am 21.3 15.7 -0.1 24 9.6 SSE 19 24 10 13 1012.8 1012.2 0.0
20/04:30am 21.6 16.0 0.2 24 9.7 SSE 19 24 10 13 1012.6 - 0.0
20/04:00am 21.3 15.5 -0.1 24 9.6 SSE 20 24 11 13 1012.5 1011.9 0.0
20/03:30am 19.2 14.2 -1.3 25 8.8 SSE 15 19 8 10 1012.5 - 0.0
20/03:00am 19.9 14.5 -1.2 24 9.1 SSE 17 20 9 11 1012.6 1012.0 0.0
20/02:30am 20.9 15.1 -1.6 22 9.8 SSE 19 24 10 13 1012.7 - 0.0
20/02:00am 21.7 15.3 -1.6 21 10.2 SSE 22 26 12 14 1012.8 1012.2 0.0
20/01:30am 22.3 16.3 -1.7 20 10.5 S 20 28 11 15 1013.0 - 0.0
20/01:00am 22.1 16.2 -1.9 20 10.5 S 19 24 10 13 1013.0 1012.4 0.0
20/12:30am 22.0 16.5 -2.0 20 10.4 S 17 22 9 12 1013.1 - 0.0
20/12:00am 22.2 17.0 -2.5 19 10.6 S 15 20 8 11 1013.2 1012.6 0.0
 
Date/Time
EST
Temp
°C
App
Temp
°C
Dew
Point
Rel
Hum
%
Delta-T
°C
Wind Press
QNH
hPa
Press
MSL
hPa
Rain
since 9 am
mm
Dir
 
Spd
km/h
Gust
km/h
Spd
kts
Gust
kts
19/11:30pm 23.1 17.2 -2.5 18 11.1 S 19 24 10 13 1013.2 - 0.0
19/11:00pm 22.9 17.3 -2.6 18 11.0 S 17 20 9 11 1013.4 1012.8 0.0
19/10:30pm 23.4 18.3 -2.2 18 11.2 SSE 15 17 8 9 1013.4 - 0.0
19/10:00pm 22.7 17.5 -2.8 18 11.0 SSE 15 17 8 9 1013.5 1012.9 0.0
19/09:30pm 22.4 17.2 -3.1 18 10.9 S 15 17 8 9 1013.5 - 0.0
19/09:00pm 22.5 17.3 -3.0 18 10.9 SSE 15 17 8 9 1013.5 1012.9 0.0
19/08:30pm 22.5 17.3 -3.0 18 10.9 S 15 17 8 9 1013.2 - 0.0
19/08:00pm 24.2 19.4 -2.4 17 11.7 S 13 15 7 8 1012.8 1012.2 0.0
19/07:30pm 26.1 21.0 -1.7 16 12.6 S 15 17 8 9 1012.4 - 0.0
19/07:00pm 26.4 21.6 -2.3 15 12.9 S 13 15 7 8 1012.1 1011.5 0.0
19/06:30pm 28.6 24.2 -2.5 13 14.1 S 11 13 6 7 1011.9 - 0.0
19/06:00pm 32.5 27.4 -1.7 11 16.2 S 15 19 8 10 1011.7 1011.1 0.0
19/05:30pm 33.9 29.0 -0.7 11 16.9 SSE 15 22 8 12 1011.5 - 0.0
19/05:00pm 34.4 30.3 -0.3 11 17.1 S 11 22 6 12 1011.3 1010.7 0.0
19/04:30pm 34.9 29.1 0.1 11 17.3 S 20 30 11 16 1011.3 - 0.0
19/04:00pm 35.3 29.8 0.4 11 17.5 SSE 19 26 10 14 1011.3 1010.7 0.0
19/03:30pm 35.7 31.5 1.9 12 17.4 SSW 13 28 7 15 1011.3 - 0.0
19/03:00pm 35.6 30.9 3.0 13 17.1 SSE 17 28 9 15 1011.5 1010.9 0.0
19/02:30pm 34.9 32.2 3.5 14 16.5 SSE 7 13 4 7 1011.9 - 0.0
19/02:00pm 34.8 31.3 3.4 14 16.4 S 11 17 6 9 1012.3 1011.7 0.0
19/01:30pm 34.2 30.4 3.9 15 15.9 S 13 20 7 11 1012.9 - 0.0
19/01:00pm 33.9 30.6 6.3 18 15.1 E 13 24 7 13 1013.4 1012.8 0.0
19/12:30pm 33.3 29.8 7.3 20 14.4 E 15 24 8 13 1014.1 - 0.0
19/12:00pm 33.0 29.5 7.1 20 14.2 E 15 24 8 13 1014.7 1014.0 0.0
19/11:30am 31.4 27.6 5.8 20 13.7 ESE 15 24 8 13 1015.4 - 0.0
19/11:00am 30.9 26.6 5.3 20 13.5 ESE 17 24 9 13 1015.8 1015.1 0.0
19/10:30am 29.7 25.2 4.4 20 13.1 ESE 17 22 9 12 1016.1 - 0.0
19/10:00am 28.5 23.8 3.4 20 12.6 ESE 17 22 9 12 1016.4 1015.7 0.0
19/09:30am 27.1 21.9 2.2 20 12.2 ESE 19 26 10 14 1016.4 - 0.0
19/09:00am 25.6 20.9 1.0 20 11.6 ESE 15 20 8 11 1016.3 1015.6 0.0
19/08:30am 23.0 17.8 0.2 22 10.4 ESE 17 24 9 13 1016.5 - 0.0
19/08:00am 21.9 16.3 -0.1 23 9.9 SE 19 28 10 15 1016.1 1015.4 0.0
19/07:30am 20.3 15.4 -0.3 25 9.1 SE 15 20 8 11 1015.7 - 0.0
19/07:00am 19.4 13.2 -0.6 26 8.7 SE 22 28 12 15 1015.1 1014.4 0.0
19/06:30am 19.3 13.4 -0.7 26 8.7 SE 20 26 11 14 1014.9 - 0.0
19/06:00am 19.6 14.3 -0.9 25 8.9 SE 17 22 9 12 1014.9 1014.2 0.0
19/05:30am 19.2 14.3 -0.7 26 8.7 SE 15 20 8 11 1014.5 - 0.0
19/05:00am 19.7 14.4 -0.9 25 9.0 SSE 17 20 9 11 1014.3 1013.6 0.0
19/04:30am 20.6 14.9 -0.7 24 9.4 SSE 19 24 10 13 1014.1 - 0.0
19/04:00am 19.1 14.5 -0.8 26 8.6 SSE 13 17 7 9 1014.2 1013.5 0.0
19/03:30am 19.5 14.5 -1.0 25 8.9 SSE 15 19 8 10 1014.2 - 0.0
19/03:00am 20.3 15.0 -0.9 24 9.3 SSE 17 22 9 12 1014.2 1013.5 0.0
19/02:30am 21.4 15.4 -1.2 22 9.9 SSE 20 28 11 15 1014.3 - 0.0
19/02:00am 22.3 16.0 -1.1 21 10.4 SSE 22 28 12 15 1014.5 1013.8 0.0
19/01:30am 23.2 16.5 -1.0 20 10.8 S 24 30 13 16 1014.5 - 0.0
19/01:00am 23.7 17.1 -0.6 20 11.0 S 24 32 13 17 1014.9 1014.2 0.0
19/12:30am 22.9 17.0 -0.6 21 10.6 S 20 28 11 15 1015.0 - 0.0
19/12:00am 22.6 17.0 -0.2 22 10.3 S 19 24 10 13 1015.1 1014.4 0.0
 
Date/Time
EST
Temp
°C
App
Temp
°C
Dew
Point
Rel
Hum
%
Delta-T
°C
Wind Press
QNH
hPa
Press
MSL
hPa
Rain
since 9 am
mm
Dir
 
Spd
km/h
Gust
km/h
Spd
kts
Gust
kts
18/11:30pm 23.0 17.4 0.2 22 10.4 S 19 22 10 12 1015.2 - 0.0
18/11:00pm 22.6 17.8 0.4 23 10.1 S 15 20 8 11 1015.3 1014.6 0.0
18/10:30pm 22.3 17.9 0.2 23 10.0 S 13 17 7 9 1015.2 - 0.0
18/10:00pm 20.9 16.2 1.2 27 9.0 SSW 15 17 8 9 1015.1 1014.4 0.0
18/09:30pm 21.6 17.0 1.3 26 9.4 S 15 17 8 9 1015.0 - 0.0
18/09:00pm 24.1 19.4 1.1 22 10.8 S 15 17 8 9 1014.8 1014.1 0.0
18/08:30pm 26.1 21.1 1.4 20 11.8 S 17 19 9 10 1014.6 - 0.0
18/08:00pm 24.9 20.6 1.1 21 11.2 S 13 15 7 8 1014.3 1013.6 0.0
18/07:30pm 25.9 21.2 1.2 20 11.8 S 15 17 8 9 1013.6 - 0.0
18/07:00pm 27.3 23.0 0.9 18 12.6 S 13 13 7 7 1013.3 1012.7 0.0
18/06:30pm 30.5 26.2 1.0 15 14.5 S 13 17 7 9 1012.9 - 0.0
18/06:00pm 33.0 28.3 0.9 13 16.0 S 15 22 8 12 1012.6 1012.0 0.0
18/05:30pm 34.2 29.7 1.9 13 16.5 S 15 24 8 13 1012.3 - 0.0
18/05:00pm 34.6 30.3 1.1 12 16.9 SSE 13 22 7 12 1012.3 1011.7 0.0
18/04:30pm 35.1 32.2 1.5 12 17.1 ESE 6 13 3 7 1012.1 - 0.0
18/04:00pm 35.3 32.2 1.6 12 17.2 SSW 7 19 4 10 1012.1 1011.5 0.0
18/03:30pm 35.7 31.9 1.9 12 17.4 S 11 20 6 11 1012.1 - 0.0
18/03:00pm 34.6 30.9 2.2 13 16.6 SSE 11 17 6 9 1012.3 1011.7 0.0
18/02:30pm 34.7 31.9 2.3 13 16.7 SW 6 13 3 7 1012.5 - 0.0
18/02:00pm 34.5 31.9 3.1 14 16.3 ESE 6 20 3 11 1012.9 1012.3 0.0
18/01:30pm 33.9 30.8 3.7 15 15.8 SSW 9 20 5 11 1013.2 - 0.0
18/01:00pm 34.8 30.7 4.4 15 16.2 SSE 15 24 8 13 1013.8 1013.2 0.0
18/12:30pm 34.9 30.4 4.4 15 16.2 ESE 17 28 9 15 1014.4 - 0.0
18/12:00pm 34.0 29.9 4.6 16 15.6 E 15 26 8 14 1014.9 1014.2 0.0
18/11:30am 34.2 28.7 5.7 17 15.4 ESE 24 32 13 17 1015.3 - 0.0
18/11:00am 32.3 27.0 5.0 18 14.5 ESE 22 30 12 16 1015.6 1014.9 0.0
18/10:30am 30.8 25.8 4.5 19 13.7 ESE 20 28 11 15 1016.0 - 0.0
18/10:00am 29.0 24.2 4.5 21 12.6 ESE 19 24 10 13 1016.3 1015.6 0.0
18/09:30am 27.8 22.3 4.2 22 12.0 SE 22 28 12 15 1016.2 - 0.0
18/09:00am 25.7 20.1 3.6 24 11.0 SE 22 28 12 15 1016.1 1015.4 0.0
18/08:30am 24.3 18.2 3.0 25 10.4 SE 24 33 13 18 1016.0 - 0.0
18/08:00am 22.6 16.4 2.1 26 9.7 SE 24 30 13 16 1016.0 1015.3 0.0
18/07:30am 20.9 16.0 1.7 28 8.9 SSE 17 20 9 11 1015.7 - 0.0
18/07:00am 18.6 13.3 2.0 33 7.6 SSE 19 22 10 12 1015.3 1014.6 0.0
18/06:30am 16.4 12.7 2.1 38 6.4 S 11 13 6 7 1015.3 - 0.0
18/06:00am 17.0 13.2 1.8 36 6.8 SSE 11 15 6 8 1015.1 1014.4 0.0
18/05:30am 17.7 13.9 1.7 34 7.2 SSE 11 13 6 7 1014.9 - 0.0
18/05:00am 19.2 16.2 1.7 31 8.0 SE 7 9 4 5 1014.8 1014.1 0.0
18/04:30am 21.2 16.3 2.0 28 9.0 SE 17 22 9 12 1014.5 - 0.0
18/04:00am 21.9 17.0 2.1 27 9.3 SE 17 24 9 13 1014.4 1013.7 0.0
18/03:30am 23.0 17.6 2.5 26 9.8 SSE 20 26 11 14 1014.2 - 0.0
18/03:00am 23.5 17.3 2.4 25 10.1 SSE 24 30 13 16 1014.2 1013.5 0.0
18/02:30am 23.2 18.2 3.7 28 9.5 SSE 19 22 10 12 1014.4 - 0.0
18/02:00am 21.4 17.6 4.0 32 8.5 SSE 13 15 7 8 1014.5 1013.8 0.0
18/01:30am 22.6 18.5 4.2 30 9.1 SSE 15 19 8 10 1014.6 - 0.0
18/01:00am 23.2 18.8 4.7 30 9.2 SSE 17 20 9 11 1014.8 1014.1 0.0
18/12:30am 23.4 19.3 4.4 29 9.4 S 15 19 8 10 1014.9 - 0.0
18/12:00am 23.3 19.3 4.8 30 9.2 S 15 17 8 9 1015.0 1014.3 0.0
 
Date/Time
EST
Temp
°C
App
Temp
°C
Dew
Point
Rel
Hum
%
Delta-T
°C
Wind Press
QNH
hPa
Press
MSL
hPa
Rain
since 9 am
mm
Dir
 
Spd
km/h
Gust
km/h
Spd
kts
Gust
kts
17/11:30pm 23.1 19.4 4.6 30 9.2 S 13 15 7 8 1015.1 - 0.0
17/11:00pm 24.3 20.2 4.6 28 9.9 S 15 20 8 11 1015.1 1014.4 0.0
17/10:30pm 24.7 20.7 5.0 28 10.0 S 15 19 8 10 1015.0 - 0.0
17/10:00pm 25.9 22.0 5.5 27 10.5 SE 15 19 8 10 1014.7 1014.0 0.0
17/09:30pm 24.3 20.7 5.1 29 9.7 SSE 13 13 7 7 1014.6 - 0.0
17/09:00pm 25.4 21.6 5.6 28 10.2 SSE 15 17 8 9 1014.4 1013.7 0.0

Other Formats:

Comma delimited format used in spreadsheet applications
http://www.bom.gov.au/fwo/IDQ60801/IDQ60801.94337.axf

JavaScript Object Notation format (JSON) in row-major order
http://www.bom.gov.au/fwo/IDQ60801/IDQ60801.94337.json